Busk, Ukraine
Current Conditions -  °F | °C
As of 12:30 AM on Tuesday 25 Nov 2014 (Local Time) from UKLL Reporting Station
Overcast Overcast  
Wind Chill: 22°   Ceiling: 800
Heat Index: 30°   Visibility: 4mi
Dew Point: 28°   Wind: 9mph
Humidity: 93%   Direction: 150°SSE
Pressure: 30.39"   Gusts: NA
Location:  49.97°N, 24.63°E
Report Text: UKLL 242130Z 15004MPS 6000 OVC008 M01/M02 Q1029 13CLRD80 TEMPO BKN006
Loading
Personal Weather Stations






























Interactive Weather Map New forecast layout! Learn more

10-Day Weather Forecast

Advertisements
Track Severe Weather on mobile